ンジャメナ国際空港の過去48時間の天気

ンジャメナ国際空港 (Ndjamena)

現在時刻: 9/17 12:19 WAT (9/17 11:19 UTC) 以下の時間は現地時間です。

過去48時間のMETAR気象情報
時間 風向 風速(m/s) 視程 気温(℃) 湿度(%) 気圧(hPa) 天気現象
17 12:00 不定 1 10km以上 32 52 1010
17 11:00 2 10km以上 31 59 1011
17 10:00 不定 2 10km以上 30 59 1011
17 09:00 不定 1 10km以上 28 66 1011
17 08:00 南南東 2 10km以上 27 70 1011
17 07:00 南南東 3 10km以上 25 78 1011
17 06:00 南東 3 10km以上 24 83 1011
17 05:00 南東 5 10km以上 25 83 1011
17 04:00 7 10km以上 25 89 1012
17 03:00 南南西 4 10km以上 25 89 1010
17 02:00 3 8000m 25 94 1010
17 01:00 3 8000m 26 89 1010
17 00:00 南南東 5 8000m 26 89 1011
16 23:00 3 8000m 28 84 1011
16 22:00 南南東 3 8000m 27 84 1011
16 21:00 南西 4 8000m 29 74 1009
16 20:00 南南西 2 8000m 29 79 1009
16 19:00 西 3 10km以上 30 62 1008
16 18:00 西北西 2 10km以上 31 62 1008
16 17:00 西南西 3 10km以上 33 53 1008
16 16:00 西南西 3 10km以上 34 53 1007
16 15:00 西南西 3 10km以上 33 59 1008
16 14:00 西南西 4 10km以上 33 53 1009
16 13:00 南西 3 10km以上 33 56 1010
16 12:00 西南西 4 10km以上 31 62 1011
16 11:00 南南西 3 10km以上 30 66 1011
16 10:00 南西 4 10km以上 30 66 1012
16 09:00 南西 4 10km以上 28 74 1012
16 08:00 南西 2 10km以上 26 84 1011
16 07:00 南西 2 10km以上 25 89 1010
16 06:00 南南西 2 10km以上 24 94 1009
16 05:00 南西 2 8000m 24 89 1009
16 04:00 3 8000m 24 94 1009
16 03:00 2 8000m 25 89 1009
16 02:00 2 8000m 24 89 1009
16 01:00 3 8000m 24 94 1009 弱い雨
15 22:00 北西 3 6000m 23 94 1011 弱い雷雨
15 21:00 不定 1 5000m 22 100 1013 弱い雷雨
FTTJ 171100Z VRB01KT CAVOK 32/21 Q1010 NOSIG
FTTJ 171000Z 17004KT 170V320 CAVOK 31/22 Q1011 NOSIG
FTTJ 170900Z VRB03KT CAVOK 30/21 Q1011 NOSIG
FTTJ 170800Z VRB02KT CAVOK 28/21 Q1011 NOSIG
FTTJ 170700Z 15004KT 150V220 9999 FEW020 27/21 Q1011 NOSIG
FTTJ 170600Z 16006KT 9999 FEW020 25/21 Q1011 NOSIG
FTTJ 170500Z 14006KT 9999 FEW020 24/21 Q1011 NOSIG
FTTJ 170400Z 13010KT 130V190 9999 BKN020 25/22 Q1011 NOSIG
FTTJ 170300Z 10013KT 100V160 9999 BKN020 FEW040CB 25/23 Q1012 TEMPO TS
FTTJ 170200Z 21007KT CAVOK 25/23 Q1010 NOSIG
FTTJ 170100Z 19005KT 8000 NSC 25/24 Q1010 NOSIG
FTTJ 170000Z 17006KT 8000 NSC 26/24 Q1010 NOSIG
FTTJ 162300Z 16009KT 8000 NSC 26/24 Q1011 NOSIG
FTTJ 162200Z 18006KT 8000 NSC 28/25 Q1011 NOSIG
FTTJ 162100Z 16006KT 160V220 8000 NSC 27/24 Q1011 NOSIG
FTTJ 162000Z 23007KT 8000 NSC 29/24 Q1009 NOSIG
FTTJ 161900Z 20004KT 8000 NSC 29/25 Q1009 NOSIG
FTTJ 161800Z 27005KT 9999 FEW033 30/22 Q1008 NOSIG
FTTJ 161700Z 29003KT 9999 FEW040 31/23 Q1008 NOSIG
FTTJ 161600Z 25006KT 250V320 9999 FEW040 33/22 Q1008 NOSIG
FTTJ 161500Z 25006KT 250V320 9999 FEW040 34/23 Q1007 NOSIG
FTTJ 161400Z 24005KT 240V330 9999 FEW040 33/24 Q1008 NOSIG
FTTJ 161300Z 25008KT 250V340 9999 FEW040 33/22 Q1009 NOSIG
FTTJ 161200Z 23006KT 230V330 CAVOK 33/23 Q1010 NOSIG
FTTJ 161100Z 24008KT CAVOK 31/23 Q1011 NOSIG
FTTJ 161000Z 21005KT 210V280 CAVOK 30/23 Q1011 NOSIG
FTTJ 160900Z 23007KT 230V300 CAVOK 30/23 Q1012 NOSIG
FTTJ 160800Z 23007KT 230V290 CAVOK 28/23 Q1012 NOSIG
FTTJ 160700Z 23004KT 230V290 CAVOK 26/23 Q1011 NOSIG
FTTJ 160600Z 23004KT 9999 FEW026 25/23 Q1010 NOSIG
FTTJ 160500Z 21003KT 210V280 9999 FEW026 24/23 Q1009 NOSIG
FTTJ 160400Z 22004KT 8000 FEW026 24/22 Q1009 NOSIG
FTTJ 160300Z 19005KT 8000 FEW026 24/23 Q1009 NOSIG
FTTJ 160200Z 19004KT 8000 FEW026 25/23 Q1009 NOSIG
FTTJ 160100Z 18004KT 8000 FEW026 24/22 Q1009 NOSIG
FTTJ 160000Z 19005KT 8000 -RA FEW026 24/23 Q1009 NOSIG
FTTJ 152100Z 31005KT 6000 -TSRA SCT026 FEW040CB 23/22 Q1011 NOSIG
FTTJ 152000Z VRB02KT 5000 -TSRA SCT026 SCT040CB 22/22 Q1013 NOSIG